createdAt,value
2017-08-01T00:01:52.414Z,7.70
2017-08-01T00:04:18.354Z,7.83
2017-08-01T00:06:44.284Z,7.97
2017-08-01T00:09:10.313Z,8.67
2017-08-01T00:11:36.264Z,7.43
2017-08-01T00:14:02.189Z,7.00
2017-08-01T00:16:28.880Z,7.43
2017-08-01T00:18:54.814Z,6.80
2017-08-01T00:21:20.759Z,7.03
2017-08-01T00:23:46.701Z,6.80
2017-08-01T00:26:12.646Z,6.17
2017-08-01T00:28:39.386Z,6.63
2017-08-01T00:42:53.085Z,6.23
2017-08-01T00:45:19.032Z,7.13
2017-08-01T00:47:44.961Z,6.63
2017-08-01T00:50:10.894Z,7.20
2017-08-01T00:52:36.829Z,7.53
2017-08-01T00:55:02.793Z,6.63
2017-08-01T00:57:28.714Z,6.20
2017-08-01T00:59:55.400Z,5.00
2017-08-01T01:02:21.315Z,5.57
2017-08-01T01:04:47.248Z,4.07
2017-08-01T01:07:13.163Z,3.90
2017-08-01T01:09:39.077Z,3.30
2017-08-01T01:12:05.730Z,3.23
2017-08-01T01:14:31.650Z,3.13
2017-08-01T01:16:58.309Z,2.50
2017-08-01T01:19:24.238Z,1.70
2017-08-01T01:21:50.206Z,1.50
2017-08-01T01:24:16.133Z,1.77
2017-08-01T01:26:42.045Z,3.40
2017-08-01T01:29:07.973Z,2.80
2017-08-01T01:31:33.926Z,1.60
2017-08-01T01:33:59.841Z,2.10
2017-08-01T01:36:25.754Z,1.70
2017-08-01T01:38:51.748Z,2.37
2017-08-01T01:41:17.672Z,1.80
2017-08-01T01:43:43.597Z,1.90
2017-08-01T01:46:09.514Z,1.40
2017-08-01T01:48:36.175Z,1.50
2017-08-01T01:51:02.087Z,1.60
2017-08-01T01:53:28.752Z,1.43
2017-08-01T01:55:54.701Z,2.53
2017-08-01T01:58:20.629Z,1.63
2017-08-01T02:00:46.602Z,1.53
2017-08-01T02:03:12.521Z,1.97
2017-08-01T02:05:38.486Z,1.77
2017-08-01T02:08:05.113Z,2.10
2017-08-01T02:10:31.030Z,1.73
2017-08-01T02:12:57.698Z,2.07
2017-08-01T02:15:23.624Z,1.80
2017-08-01T02:17:49.546Z,1.60
2017-08-01T02:20:15.521Z,2.00
2017-08-01T02:22:41.460Z,2.40
2017-08-01T02:25:07.382Z,2.10
2017-08-01T02:27:33.304Z,2.03
2017-08-01T02:29:59.234Z,2.23
2017-08-01T02:32:25.156Z,2.63
2017-08-01T02:34:51.084Z,3.03
2017-08-01T02:37:17.011Z,2.80
2017-08-01T02:39:42.945Z,2.30
2017-08-01T02:42:09.737Z,2.97
2017-08-01T02:44:35.674Z,2.33
2017-08-01T02:47:01.602Z,2.97
2017-08-01T02:49:27.515Z,2.30
2017-08-01T02:51:53.446Z,2.20
2017-08-01T02:54:19.359Z,2.63
2017-08-01T02:56:46.019Z,2.27
2017-08-01T02:59:11.950Z,2.10
2017-08-01T03:01:37.892Z,2.33
2017-08-01T03:04:03.861Z,2.23
2017-08-01T03:06:31.089Z,2.20
2017-08-01T03:08:57.021Z,2.20
2017-08-01T03:11:22.941Z,2.93
2017-08-01T03:13:48.858Z,2.30
2017-08-01T03:16:14.765Z,2.80
2017-08-01T03:18:40.688Z,2.93
2017-08-01T03:21:06.624Z,3.03
2017-08-01T03:26:28.221Z,2.67
2017-08-01T03:28:54.894Z,2.40
2017-08-01T03:31:20.810Z,2.40
2017-08-01T03:33:47.479Z,2.80
2017-08-01T03:36:13.393Z,2.70
2017-08-01T03:38:40.053Z,2.40
2017-08-01T03:41:05.978Z,2.87
2017-08-01T03:43:31.927Z,2.67
2017-08-01T03:45:57.837Z,2.87
2017-08-01T03:48:23.806Z,3.00
2017-08-01T03:50:49.737Z,2.90
2017-08-01T03:53:15.641Z,2.47
2017-08-01T03:55:41.609Z,3.00
2017-08-01T03:58:07.517Z,2.97
2017-08-01T04:00:33.441Z,2.80
2017-08-01T04:02:59.370Z,2.80
2017-08-01T04:05:25.342Z,3.20
2017-08-01T04:07:51.273Z,3.53
2017-08-01T04:10:17.237Z,3.40
2017-08-01T04:12:43.162Z,2.83
2017-08-01T04:15:09.085Z,2.80
2017-08-01T04:17:34.990Z,3.53
2017-08-01T04:20:00.930Z,3.20
2017-08-01T04:22:26.838Z,3.07
2017-08-01T04:24:52.762Z,3.10
2017-08-01T04:27:18.687Z,3.77
2017-08-01T04:29:44.618Z,3.40
2017-08-01T04:32:10.563Z,3.00
2017-08-01T04:34:36.485Z,3.20
2017-08-01T04:37:02.418Z,3.23
2017-08-01T04:39:29.732Z,3.80
2017-08-01T04:41:56.856Z,3.10
2017-08-01T04:44:22.774Z,4.03
2017-08-01T04:46:48.693Z,5.90
2017-08-01T04:49:14.683Z,5.37
2017-08-01T04:51:41.329Z,5.00
2017-08-01T04:54:07.265Z,4.40
2017-08-01T04:56:33.225Z,3.50
2017-08-01T04:58:59.146Z,3.83
2017-08-01T05:01:25.126Z,3.80
2017-08-01T05:03:51.107Z,4.30
2017-08-01T05:06:17.029Z,4.40
2017-08-01T05:08:42.970Z,4.93
2017-08-01T05:11:08.881Z,5.63
2017-08-01T05:13:34.823Z,5.50
2017-08-01T05:16:00.740Z,5.37
2017-08-01T05:18:26.662Z,5.40
2017-08-01T05:20:52.597Z,4.70
2017-08-01T05:23:18.546Z,6.90
2017-08-01T05:25:44.450Z,6.27
2017-08-01T05:28:10.385Z,6.70
2017-08-01T05:33:38.014Z,4.43
2017-08-01T05:36:03.966Z,5.10
2017-08-01T05:38:29.905Z,4.63
2017-08-01T05:40:55.833Z,4.73
2017-08-01T05:43:21.754Z,5.90
2017-08-01T05:45:47.682Z,5.27
2017-08-01T05:48:13.654Z,5.47
2017-08-01T05:50:40.337Z,5.30
2017-08-01T05:53:06.261Z,5.20
2017-08-01T05:55:32.202Z,4.90
2017-08-01T05:57:58.182Z,5.60
2017-08-01T06:00:24.853Z,5.30
2017-08-01T06:02:50.769Z,5.77
2017-08-01T06:05:16.721Z,5.17
2017-08-01T06:07:42.690Z,4.93
2017-08-01T06:10:08.613Z,6.23
2017-08-01T06:12:34.546Z,4.90
2017-08-01T06:15:00.481Z,4.83
2017-08-01T06:17:26.425Z,4.73
2017-08-01T06:19:56.129Z,4.33
2017-08-01T06:22:22.803Z,3.90
2017-08-01T06:24:48.738Z,3.50
2017-08-01T06:27:14.678Z,3.53
2017-08-01T06:29:40.597Z,3.57
2017-08-01T06:32:06.501Z,3.90
2017-08-01T06:34:32.432Z,3.57
2017-08-01T06:36:58.354Z,3.33
2017-08-01T06:39:37.413Z,5.10
2017-08-01T06:42:03.391Z,3.60
2017-08-01T06:44:29.321Z,3.53
2017-08-01T06:46:55.994Z,3.13
2017-08-01T06:58:13.431Z,3.40
2017-08-01T07:00:39.365Z,3.10
2017-08-01T07:03:05.292Z,3.20
2017-08-01T07:05:31.230Z,3.33
2017-08-01T07:07:57.190Z,3.10
2017-08-01T07:10:23.117Z,3.50
2017-08-01T07:12:49.049Z,3.77
2017-08-01T07:15:14.969Z,3.60
2017-08-01T07:17:40.886Z,3.40
2017-08-01T07:20:06.806Z,3.00
2017-08-01T07:22:32.721Z,2.77
2017-08-01T07:24:58.645Z,2.87
2017-08-01T07:27:24.562Z,2.97
2017-08-01T07:29:50.488Z,4.00
2017-08-01T07:32:16.399Z,3.27
2017-08-01T07:34:42.330Z,4.53
2017-08-01T07:37:08.985Z,4.20
2017-08-01T07:39:34.925Z,2.20
2017-08-01T07:42:00.855Z,2.40
2017-08-01T07:44:26.778Z,2.40
2017-08-01T07:46:52.716Z,2.67
2017-08-01T07:49:18.661Z,3.03
2017-08-01T07:51:44.568Z,3.13
2017-08-01T07:54:10.499Z,3.20
2017-08-01T07:56:36.413Z,2.80
2017-08-01T07:59:02.333Z,3.00
2017-08-01T08:01:28.272Z,3.17
2017-08-01T08:03:54.197Z,2.90
2017-08-01T08:06:20.144Z,3.00
2017-08-01T08:08:46.049Z,2.80
2017-08-01T08:11:11.957Z,3.23
2017-08-01T08:13:37.993Z,2.93
2017-08-01T08:16:04.645Z,3.70
2017-08-01T08:18:30.983Z,3.97
2017-08-01T08:21:00.995Z,3.20
2017-08-01T08:23:27.026Z,3.40
2017-08-01T08:25:52.964Z,3.23
2017-08-01T08:28:18.874Z,3.43
2017-08-01T08:30:44.839Z,3.00
2017-08-01T08:33:17.908Z,3.80
2017-08-01T08:35:43.888Z,3.47
2017-08-01T08:38:09.833Z,3.00
2017-08-01T08:40:36.517Z,3.00
2017-08-01T08:43:02.498Z,3.00
2017-08-01T08:45:28.453Z,2.87
2017-08-01T08:47:54.395Z,3.53
2017-08-01T08:50:20.332Z,2.63
2017-08-01T08:52:46.263Z,3.10
2017-08-01T08:55:12.250Z,3.70
2017-08-01T08:57:38.188Z,3.03
2017-08-01T09:00:04.275Z,3.47
2017-08-01T09:02:30.253Z,3.57
2017-08-01T09:04:56.219Z,4.50
2017-08-01T09:07:22.232Z,3.63
2017-08-01T09:09:48.230Z,3.93
2017-08-01T09:12:15.106Z,4.00
2017-08-01T09:14:41.065Z,4.80
2017-08-01T09:17:07.058Z,3.57
2017-08-01T09:19:33.019Z,3.90
2017-08-01T09:22:02.087Z,5.33
2017-08-01T09:24:46.134Z,3.97
2017-08-01T09:27:12.080Z,3.77
2017-08-01T09:29:38.026Z,3.60
2017-08-01T09:32:04.717Z,4.13
2017-08-01T09:34:30.631Z,3.20
2017-08-01T09:36:56.558Z,3.30
2017-08-01T09:39:22.490Z,3.50
2017-08-01T09:41:48.434Z,3.50
2017-08-01T09:44:14.374Z,2.90
2017-08-01T09:46:40.318Z,2.80
2017-08-01T09:49:06.274Z,3.70
2017-08-01T09:51:51.685Z,3.03
2017-08-01T09:54:17.607Z,2.70
2017-08-01T09:56:43.537Z,3.47
2017-08-01T09:59:09.467Z,3.17
2017-08-01T10:01:35.407Z,3.10
2017-08-01T10:04:01.353Z,3.63
2017-08-01T10:06:27.291Z,3.30
2017-08-01T10:08:53.190Z,2.63
2017-08-01T10:11:19.120Z,3.03
2017-08-01T10:13:45.086Z,3.67
2017-08-01T10:19:22.415Z,2.37
2017-08-01T10:22:00.842Z,2.27
2017-08-01T10:24:26.758Z,3.30
2017-08-01T10:26:56.420Z,2.40
2017-08-01T10:29:25.778Z,2.23
2017-08-01T10:31:54.886Z,3.47
2017-08-01T10:34:27.151Z,2.60
2017-08-01T10:36:54.145Z,2.80
2017-08-01T10:39:23.868Z,3.10
2017-08-01T10:41:57.169Z,3.90
2017-08-01T10:44:23.925Z,2.63
2017-08-01T10:46:53.802Z,3.10
2017-08-01T10:49:19.713Z,2.70
2017-08-01T10:51:45.649Z,3.10
2017-08-01T10:54:27.509Z,2.80
2017-08-01T10:56:56.950Z,3.40
2017-08-01T10:59:43.253Z,2.37
2017-08-01T11:02:12.696Z,3.03
2017-08-01T11:04:52.061Z,2.60
2017-08-01T11:07:26.446Z,3.30
2017-08-01T11:10:02.718Z,3.13
2017-08-01T11:12:37.053Z,2.63
2017-08-01T11:15:09.497Z,2.87
2017-08-01T11:17:41.862Z,3.43
2017-08-01T11:20:12.179Z,3.30
2017-08-01T11:22:38.119Z,3.43
2017-08-01T11:25:25.739Z,2.70
2017-08-01T11:27:56.245Z,2.50
2017-08-01T11:30:22.225Z,6.00
2017-08-01T11:33:08.015Z,7.73
2017-08-01T11:35:33.934Z,2.90
2017-08-01T11:38:15.650Z,3.63
2017-08-01T11:40:49.145Z,4.07
2017-08-01T11:43:23.314Z,4.00
2017-08-01T11:45:57.693Z,2.47
2017-08-01T11:48:27.121Z,3.77
2017-08-01T11:50:53.145Z,2.00
2017-08-01T11:53:19.229Z,2.80
2017-08-01T11:56:02.966Z,2.20
2017-08-01T11:58:41.458Z,2.60
2017-08-01T12:01:08.500Z,2.13
2017-08-01T12:03:35.537Z,1.80
2017-08-01T12:06:07.309Z,2.10
2017-08-01T12:08:37.824Z,2.37
2017-08-01T12:11:03.874Z,2.50
2017-08-01T12:13:29.809Z,2.73
2017-08-01T12:16:03.866Z,2.60
2017-08-01T12:18:29.886Z,2.70
2017-08-01T12:20:59.554Z,3.27
2017-08-01T12:23:29.981Z,2.80
2017-08-01T12:26:01.242Z,2.77
2017-08-01T12:28:37.701Z,2.43
2017-08-01T12:31:09.068Z,2.63
2017-08-01T12:33:40.511Z,2.90
2017-08-01T12:36:16.789Z,2.67
2017-08-01T12:38:44.725Z,2.97
2017-08-01T12:41:36.527Z,2.70
2017-08-01T12:44:07.094Z,2.27
2017-08-01T12:46:37.418Z,2.43
2017-08-01T12:49:05.410Z,2.27
2017-08-01T12:51:39.918Z,2.70
2017-08-01T12:54:13.341Z,2.30
2017-08-01T12:56:41.410Z,2.33
2017-08-01T12:59:07.417Z,2.57
2017-08-01T13:01:36.422Z,2.67
2017-08-01T13:04:10.646Z,2.43
2017-08-01T13:06:43.102Z,2.87
2017-08-01T13:09:17.434Z,3.07
2017-08-01T13:11:45.186Z,3.30
2017-08-01T13:14:11.945Z,3.60
2017-08-01T13:16:38.678Z,2.90
2017-08-01T13:19:04.777Z,3.53
2017-08-01T13:21:30.737Z,3.80
2017-08-01T13:24:08.289Z,3.50
2017-08-01T13:29:31.200Z,3.40
2017-08-01T13:31:57.921Z,3.60
2017-08-01T13:34:27.676Z,3.53
2017-08-01T13:36:53.674Z,3.53
2017-08-01T13:39:25.438Z,3.53
2017-08-01T13:42:04.821Z,3.70
2017-08-01T13:44:34.269Z,3.70
2017-08-01T13:47:11.482Z,4.10
2017-08-01T13:52:31.440Z,4.80
2017-08-01T13:54:58.413Z,4.50
2017-08-01T13:57:38.218Z,4.00
2017-08-01T14:03:05.142Z,3.40
2017-08-01T14:05:34.502Z,4.50
2017-08-01T14:08:18.821Z,3.23
2017-08-01T14:11:06.148Z,3.27
2017-08-01T14:16:31.319Z,3.50
2017-08-01T14:19:04.642Z,3.50
2017-08-01T14:24:30.498Z,3.67
2017-08-01T14:30:02.978Z,4.17
2017-08-01T14:35:22.066Z,3.77
2017-08-01T14:37:49.845Z,3.43
2017-08-01T14:40:29.631Z,4.70
2017-08-01T14:43:13.082Z,4.07
2017-08-01T14:45:47.467Z,3.37
2017-08-01T14:48:13.393Z,3.83
2017-08-01T14:50:55.283Z,3.10
2017-08-01T14:53:21.226Z,3.00
2017-08-01T14:56:05.278Z,3.23
2017-08-01T14:58:39.563Z,3.47
2017-08-01T15:01:12.096Z,3.70
2017-08-01T15:03:46.367Z,3.80
2017-08-01T15:06:16.749Z,3.27
2017-08-01T15:08:55.109Z,3.87
2017-08-01T15:11:31.461Z,3.90
2017-08-01T15:14:02.677Z,3.30
2017-08-01T15:16:37.053Z,4.10
2017-08-01T15:19:22.338Z,4.47
2017-08-01T15:24:50.166Z,4.50
2017-08-01T15:27:27.442Z,3.80
2017-08-01T15:33:01.598Z,3.30
2017-08-01T15:35:28.602Z,5.40
2017-08-01T15:38:09.197Z,15.57
2017-08-01T15:43:28.738Z,10.27
2017-08-01T15:46:12.857Z,8.57
2017-08-01T15:48:38.801Z,10.00
2017-08-01T15:57:11.643Z,28.90
2017-08-01T16:02:50.605Z,30.10
2017-08-01T16:05:24.985Z,8.00
2017-08-01T16:07:50.925Z,6.70
2017-08-01T16:10:32.552Z,4.80
2017-08-01T16:13:07.125Z,3.90
2017-08-01T16:15:34.141Z,4.90
2017-08-01T16:18:04.792Z,5.17
2017-08-01T16:20:51.060Z,4.60
2017-08-01T16:23:23.486Z,5.20
2017-08-01T16:25:57.850Z,19.50
2017-08-01T16:28:33.210Z,23.00
2017-08-01T16:31:06.518Z,11.97
2017-08-01T16:33:38.989Z,7.70
2017-08-01T16:36:13.439Z,6.30
2017-08-01T16:38:47.645Z,6.53
2017-08-01T16:41:21.041Z,5.80
2017-08-01T16:43:55.360Z,4.90
2017-08-01T16:46:22.376Z,6.67
2017-08-01T16:49:04.246Z,9.43
2017-08-01T16:51:37.712Z,8.13
2017-08-01T16:54:03.669Z,5.33
2017-08-01T16:56:45.437Z,4.80
2017-08-01T16:59:16.744Z,4.23
2017-08-01T17:01:53.113Z,4.70
2017-08-01T17:04:21.908Z,3.83
2017-08-01T17:07:00.782Z,3.40
2017-08-01T17:09:30.207Z,3.73
2017-08-01T17:11:58.245Z,3.83
2017-08-01T17:14:25.241Z,4.40
2017-08-01T17:16:53.953Z,4.07
2017-08-01T17:22:24.102Z,3.80
2017-08-01T17:25:00.452Z,3.77
2017-08-01T17:27:29.855Z,4.07
2017-08-01T17:30:09.088Z,3.77
2017-08-01T17:32:42.498Z,3.63
2017-08-01T17:35:16.810Z,3.80
2017-08-01T17:37:50.413Z,3.10
2017-08-01T17:40:26.894Z,3.20
2017-08-01T17:42:53.907Z,3.10
2017-08-01T17:45:34.435Z,3.80
2017-08-01T17:48:06.874Z,3.53
2017-08-01T17:50:41.216Z,4.63
2017-08-01T17:56:07.929Z,5.70
2017-08-01T17:58:44.295Z,3.43
2017-08-01T18:09:49.990Z,4.40
2017-08-01T18:12:16.003Z,3.77
2017-08-01T18:20:50.205Z,4.00
2017-08-01T18:49:18.274Z,2.97
2017-08-01T18:51:48.919Z,3.30
2017-08-01T18:57:26.734Z,4.77
2017-08-01T19:00:03.283Z,3.93
2017-08-01T19:02:35.578Z,4.30
2017-08-01T19:05:06.758Z,4.53
2017-08-01T19:07:32.681Z,4.07
2017-08-01T19:09:58.709Z,4.27
2017-08-01T19:12:24.669Z,5.00
2017-08-01T19:14:51.373Z,3.93
2017-08-01T19:17:17.309Z,4.50
2017-08-01T19:19:43.286Z,4.70
2017-08-01T19:22:09.931Z,3.83
2017-08-01T19:24:39.036Z,3.90
2017-08-01T19:27:06.961Z,4.23
2017-08-01T19:29:32.877Z,5.77
2017-08-01T19:31:58.802Z,5.03
2017-08-01T19:34:38.141Z,5.20
2017-08-01T19:37:04.070Z,4.30
2017-08-01T19:39:30.049Z,4.33
2017-08-01T19:41:55.968Z,3.50
2017-08-01T19:44:21.946Z,4.03
2017-08-01T19:46:49.213Z,4.00
2017-08-01T19:49:19.133Z,5.80
2017-08-01T19:51:45.218Z,5.83
2017-08-01T19:57:08.272Z,5.03
2017-08-01T19:59:34.182Z,4.83
2017-08-01T20:02:01.865Z,4.93
2017-08-01T20:04:27.818Z,5.30
2017-08-01T20:06:53.757Z,4.03
2017-08-01T20:09:19.794Z,5.10
2017-08-01T20:11:45.733Z,5.10
2017-08-01T20:14:15.153Z,5.37
2017-08-01T20:16:41.144Z,5.10
2017-08-01T20:19:07.079Z,4.93
2017-08-01T20:21:33.025Z,5.07
2017-08-01T20:23:58.978Z,4.53
2017-08-01T20:26:26.636Z,4.40
2017-08-01T20:28:53.336Z,5.40
2017-08-01T20:31:19.326Z,4.83
2017-08-01T20:33:45.336Z,5.50
2017-08-01T20:36:13.032Z,4.87
2017-08-01T20:38:38.973Z,5.63
2017-08-01T20:41:04.901Z,6.60
2017-08-01T20:43:30.842Z,5.60
2017-08-01T20:45:56.786Z,6.30
2017-08-01T20:48:26.874Z,5.60
2017-08-01T20:56:59.372Z,6.40
2017-08-01T20:59:25.310Z,6.27
2017-08-01T21:01:52.302Z,6.13
2017-08-01T21:04:38.648Z,6.10
2017-08-01T21:07:25.057Z,5.87
2017-08-01T21:09:58.497Z,6.63
2017-08-01T21:15:17.998Z,6.27
2017-08-01T21:17:47.500Z,6.43
2017-08-01T21:20:30.853Z,5.80
2017-08-01T21:28:47.453Z,5.57
2017-08-01T21:31:30.837Z,4.73
2017-08-01T21:33:58.761Z,5.37
2017-08-01T21:36:28.457Z,5.80
2017-08-01T21:39:13.658Z,6.10
2017-08-01T21:41:47.346Z,6.40
2017-08-01T21:44:20.841Z,6.87
2017-08-01T21:46:55.404Z,5.57
2017-08-01T21:49:29.472Z,5.60
2017-08-01T21:52:03.786Z,5.90
2017-08-01T21:54:34.096Z,6.00
2017-08-01T21:57:04.424Z,6.40
2017-08-01T21:59:31.079Z,6.93
2017-08-01T22:02:01.156Z,7.00
2017-08-01T22:04:27.082Z,6.10
2017-08-01T22:06:53.045Z,6.70
2017-08-01T22:09:19.721Z,5.40
2017-08-01T22:11:45.638Z,6.50
2017-08-01T22:14:11.562Z,6.20
2017-08-01T22:16:38.206Z,6.80
2017-08-01T22:19:04.152Z,5.90
2017-08-01T22:21:30.115Z,5.17
2017-08-01T22:23:56.062Z,4.90
2017-08-01T22:26:22.718Z,6.00
2017-08-01T22:28:48.641Z,5.03
2017-08-01T22:31:15.327Z,5.77
2017-08-01T22:33:41.265Z,5.40
2017-08-01T22:36:07.185Z,4.93
2017-08-01T22:38:33.190Z,5.90
2017-08-01T22:40:59.144Z,5.50
2017-08-01T22:43:25.085Z,5.40
2017-08-01T22:45:51.045Z,5.87
2017-08-01T22:48:17.709Z,5.10
2017-08-01T22:50:43.655Z,6.17
2017-08-01T22:53:09.576Z,6.10
2017-08-01T22:55:35.509Z,5.33
2017-08-01T22:58:01.425Z,5.27
2017-08-01T23:00:27.374Z,5.47
2017-08-01T23:02:53.313Z,5.77
2017-08-01T23:16:43.329Z,6.00
2017-08-01T23:19:09.295Z,5.53
2017-08-01T23:21:36.042Z,5.40
2017-08-01T23:24:02.749Z,5.60
2017-08-01T23:29:41.287Z,5.97
2017-08-01T23:32:07.257Z,6.57
2017-08-01T23:34:33.275Z,5.60
2017-08-01T23:36:59.985Z,5.53
2017-08-01T23:39:25.948Z,5.73
2017-08-01T23:41:52.711Z,6.73
2017-08-01T23:44:18.673Z,7.27
2017-08-01T23:46:44.658Z,7.40
2017-08-01T23:49:10.605Z,6.73
2017-08-01T23:51:36.577Z,6.87
2017-08-01T23:54:02.577Z,7.00
2017-08-01T23:56:28.585Z,7.10
2017-08-01T23:58:54.558Z,7.80
